sensor_id;sensor_type;location;lat;lon;timestamp;P1;durP1;ratioP1;P2;durP2;ratioP2
81508;SDS011;70930;52.412;13.554;2023-10-09T00:02:27;4.20;;;1.65;;
81508;SDS011;70930;52.412;13.554;2023-10-09T00:05:14;2.85;;;1.35;;
81508;SDS011;70930;52.412;13.554;2023-10-09T00:08:14;2.88;;;1.60;;
81508;SDS011;70930;52.412;13.554;2023-10-09T00:11:06;3.70;;;1.70;;
81508;SDS011;70930;52.412;13.554;2023-10-09T00:13:58;5.45;;;1.92;;
81508;SDS011;70930;52.412;13.554;2023-10-09T00:16:45;3.25;;;1.42;;
81508;SDS011;70930;52.412;13.554;2023-10-09T00:19:34;3.90;;;1.73;;
81508;SDS011;70930;52.412;13.554;2023-10-09T00:22:19;2.75;;;1.60;;
81508;SDS011;70930;52.412;13.554;2023-10-09T00:25:11;3.25;;;1.60;;
81508;SDS011;70930;52.412;13.554;2023-10-09T00:27:57;4.35;;;1.92;;
81508;SDS011;70930;52.412;13.554;2023-10-09T00:30:44;1.95;;;1.45;;
81508;SDS011;70930;52.412;13.554;2023-10-09T00:33:30;4.38;;;1.80;;
81508;SDS011;70930;52.412;13.554;2023-10-09T00:36:15;2.50;;;1.65;;
81508;SDS011;70930;52.412;13.554;2023-10-09T00:39:04;2.10;;;1.23;;
81508;SDS011;70930;52.412;13.554;2023-10-09T00:42:02;6.03;;;1.77;;
81508;SDS011;70930;52.412;13.554;2023-10-09T00:44:51;1.83;;;1.20;;
81508;SDS011;70930;52.412;13.554;2023-10-09T00:47:36;2.40;;;1.63;;
81508;SDS011;70930;52.412;13.554;2023-10-09T00:50:26;4.10;;;1.55;;
81508;SDS011;70930;52.412;13.554;2023-10-09T00:53:11;3.33;;;1.75;;
81508;SDS011;70930;52.412;13.554;2023-10-09T00:56:03;3.40;;;1.65;;
81508;SDS011;70930;52.412;13.554;2023-10-09T00:59:13;2.33;;;1.30;;
81508;SDS011;70930;52.412;13.554;2023-10-09T01:02:01;3.60;;;2.05;;
81508;SDS011;70930;52.412;13.554;2023-10-09T01:04:50;4.63;;;2.10;;
81508;SDS011;70930;52.412;13.554;2023-10-09T01:07:35;4.35;;;1.98;;
81508;SDS011;70930;52.412;13.554;2023-10-09T01:10:25;3.65;;;1.65;;
81508;SDS011;70930;52.412;13.554;2023-10-09T01:13:18;4.15;;;1.55;;
81508;SDS011;70930;52.412;13.554;2023-10-09T01:16:04;4.13;;;2.10;;
81508;SDS011;70930;52.412;13.554;2023-10-09T01:18:54;4.20;;;2.40;;
81508;SDS011;70930;52.412;13.554;2023-10-09T01:21:42;6.07;;;1.80;;
81508;SDS011;70930;52.412;13.554;2023-10-09T01:24:27;6.93;;;2.45;;
81508;SDS011;70930;52.412;13.554;2023-10-09T01:27:16;3.45;;;1.80;;
81508;SDS011;70930;52.412;13.554;2023-10-09T01:30:02;2.75;;;1.67;;
81508;SDS011;70930;52.412;13.554;2023-10-09T01:32:48;3.70;;;1.55;;
81508;SDS011;70930;52.412;13.554;2023-10-09T01:35:33;4.10;;;2.45;;
81508;SDS011;70930;52.412;13.554;2023-10-09T01:38:18;4.57;;;2.40;;
81508;SDS011;70930;52.412;13.554;2023-10-09T01:41:15;4.32;;;2.17;;
81508;SDS011;70930;52.412;13.554;2023-10-09T01:44:04;4.40;;;1.75;;
81508;SDS011;70930;52.412;13.554;2023-10-09T01:46:55;3.90;;;2.08;;
81508;SDS011;70930;52.412;13.554;2023-10-09T01:52:28;2.45;;;1.63;;
81508;SDS011;70930;52.412;13.554;2023-10-09T01:55:15;5.70;;;2.08;;
81508;SDS011;70930;52.412;13.554;2023-10-09T01:58:13;4.30;;;2.92;;
81508;SDS011;70930;52.412;13.554;2023-10-09T02:01:09;2.70;;;1.50;;
81508;SDS011;70930;52.412;13.554;2023-10-09T02:03:54;5.20;;;1.98;;
81508;SDS011;70930;52.412;13.554;2023-10-09T02:06:47;3.75;;;2.15;;
81508;SDS011;70930;52.412;13.554;2023-10-09T02:09:36;3.30;;;1.90;;
81508;SDS011;70930;52.412;13.554;2023-10-09T02:12:32;6.40;;;2.63;;
81508;SDS011;70930;52.412;13.554;2023-10-09T02:15:18;5.15;;;2.75;;
81508;SDS011;70930;52.412;13.554;2023-10-09T02:18:24;4.70;;;2.75;;
81508;SDS011;70930;52.412;13.554;2023-10-09T02:21:24;3.38;;;2.42;;
81508;SDS011;70930;52.412;13.554;2023-10-09T02:24:19;6.35;;;2.08;;
81508;SDS011;70930;52.412;13.554;2023-10-09T02:27:33;2.85;;;1.88;;
81508;SDS011;70930;52.412;13.554;2023-10-09T02:30:26;3.13;;;2.25;;
81508;SDS011;70930;52.412;13.554;2023-10-09T02:33:16;4.78;;;2.35;;
81508;SDS011;70930;52.412;13.554;2023-10-09T02:36:15;4.47;;;2.22;;
81508;SDS011;70930;52.412;13.554;2023-10-09T02:39:01;5.07;;;1.92;;
81508;SDS011;70930;52.412;13.554;2023-10-09T02:41:51;3.25;;;2.03;;
81508;SDS011;70930;52.412;13.554;2023-10-09T02:44:39;7.25;;;2.22;;
81508;SDS011;70930;52.412;13.554;2023-10-09T02:47:31;4.22;;;1.98;;
81508;SDS011;70930;52.412;13.554;2023-10-09T02:50:22;3.35;;;2.00;;
81508;SDS011;70930;52.412;13.554;2023-10-09T02:53:08;5.85;;;2.92;;
81508;SDS011;70930;52.412;13.554;2023-10-09T02:55:55;4.40;;;3.08;;
81508;SDS011;70930;52.412;13.554;2023-10-09T02:59:02;7.20;;;4.15;;
81508;SDS011;70930;52.412;13.554;2023-10-09T03:01:51;8.10;;;4.28;;
81508;SDS011;70930;52.412;13.554;2023-10-09T03:04:40;3.85;;;2.00;;
81508;SDS011;70930;52.412;13.554;2023-10-09T03:07:26;6.60;;;2.22;;
81508;SDS011;70930;52.412;13.554;2023-10-09T03:10:12;4.80;;;3.70;;
81508;SDS011;70930;52.412;13.554;2023-10-09T03:12:57;4.72;;;3.30;;
81508;SDS011;70930;52.412;13.554;2023-10-09T03:15:48;4.97;;;2.83;;
81508;SDS011;70930;52.412;13.554;2023-10-09T03:18:34;6.20;;;2.60;;
81508;SDS011;70930;52.412;13.554;2023-10-09T03:21:19;6.55;;;3.70;;
81508;SDS011;70930;52.412;13.554;2023-10-09T03:24:05;3.58;;;2.60;;
81508;SDS011;70930;52.412;13.554;2023-10-09T03:26:52;7.20;;;3.65;;
81508;SDS011;70930;52.412;13.554;2023-10-09T03:29:40;9.38;;;3.65;;
81508;SDS011;70930;52.412;13.554;2023-10-09T03:32:34;8.20;;;3.85;;
81508;SDS011;70930;52.412;13.554;2023-10-09T03:35:19;9.77;;;5.15;;
81508;SDS011;70930;52.412;13.554;2023-10-09T03:41:04;12.25;;;6.28;;
81508;SDS011;70930;52.412;13.554;2023-10-09T03:43:51;10.50;;;5.30;;
81508;SDS011;70930;52.412;13.554;2023-10-09T03:46:36;14.10;;;6.72;;
81508;SDS011;70930;52.412;13.554;2023-10-09T03:49:21;4.43;;;3.03;;
81508;SDS011;70930;52.412;13.554;2023-10-09T03:52:08;6.55;;;3.50;;
81508;SDS011;70930;52.412;13.554;2023-10-09T03:54:54;8.32;;;4.72;;
81508;SDS011;70930;52.412;13.554;2023-10-09T03:57:40;8.02;;;4.38;;
81508;SDS011;70930;52.412;13.554;2023-10-09T04:00:28;10.32;;;4.93;;
81508;SDS011;70930;52.412;13.554;2023-10-09T04:03:14;6.97;;;3.67;;
81508;SDS011;70930;52.412;13.554;2023-10-09T04:06:00;11.80;;;5.32;;
81508;SDS011;70930;52.412;13.554;2023-10-09T04:08:45;11.80;;;6.15;;
81508;SDS011;70930;52.412;13.554;2023-10-09T04:11:36;6.78;;;3.60;;
81508;SDS011;70930;52.412;13.554;2023-10-09T04:14:21;5.18;;;3.30;;
81508;SDS011;70930;52.412;13.554;2023-10-09T04:17:11;5.45;;;3.40;;
81508;SDS011;70930;52.412;13.554;2023-10-09T04:20:14;6.68;;;3.13;;
81508;SDS011;70930;52.412;13.554;2023-10-09T04:23:03;5.45;;;3.35;;
81508;SDS011;70930;52.412;13.554;2023-10-09T04:25:51;11.68;;;5.40;;
81508;SDS011;70930;52.412;13.554;2023-10-09T04:28:37;7.32;;;3.53;;
81508;SDS011;70930;52.412;13.554;2023-10-09T04:31:22;6.47;;;2.92;;
81508;SDS011;70930;52.412;13.554;2023-10-09T04:34:20;5.88;;;3.50;;
81508;SDS011;70930;52.412;13.554;2023-10-09T04:37:09;4.85;;;3.20;;
81508;SDS011;70930;52.412;13.554;2023-10-09T04:40:00;7.45;;;3.00;;
81508;SDS011;70930;52.412;13.554;2023-10-09T04:42:56;7.63;;;4.28;;
81508;SDS011;70930;52.412;13.554;2023-10-09T04:45:44;6.40;;;2.65;;
81508;SDS011;70930;52.412;13.554;2023-10-09T04:48:48;4.88;;;3.03;;
81508;SDS011;70930;52.412;13.554;2023-10-09T04:51:37;4.03;;;2.22;;
81508;SDS011;70930;52.412;13.554;2023-10-09T04:54:40;5.40;;;2.90;;
81508;SDS011;70930;52.412;13.554;2023-10-09T04:57:46;5.03;;;3.25;;
81508;SDS011;70930;52.412;13.554;2023-10-09T05:00:45;6.43;;;2.92;;
81508;SDS011;70930;52.412;13.554;2023-10-09T05:03:47;7.20;;;3.22;;
81508;SDS011;70930;52.412;13.554;2023-10-09T05:06:41;3.88;;;1.95;;
81508;SDS011;70930;52.412;13.554;2023-10-09T05:09:42;9.52;;;3.00;;
81508;SDS011;70930;52.412;13.554;2023-10-09T05:12:40;6.63;;;2.47;;
81508;SDS011;70930;52.412;13.554;2023-10-09T05:15:31;5.78;;;3.00;;
81508;SDS011;70930;52.412;13.554;2023-10-09T05:18:19;5.15;;;3.35;;
81508;SDS011;70930;52.412;13.554;2023-10-09T05:21:12;5.93;;;2.85;;
81508;SDS011;70930;52.412;13.554;2023-10-09T05:24:01;5.22;;;3.35;;
81508;SDS011;70930;52.412;13.554;2023-10-09T05:26:59;6.22;;;3.33;;
81508;SDS011;70930;52.412;13.554;2023-10-09T05:30:03;6.18;;;3.50;;
81508;SDS011;70930;52.412;13.554;2023-10-09T05:33:09;5.68;;;3.00;;
81508;SDS011;70930;52.412;13.554;2023-10-09T05:36:13;6.35;;;3.20;;
81508;SDS011;70930;52.412;13.554;2023-10-09T05:39:10;4.63;;;2.55;;
81508;SDS011;70930;52.412;13.554;2023-10-09T05:42:22;6.03;;;3.33;;
81508;SDS011;70930;52.412;13.554;2023-10-09T05:45:13;6.30;;;3.28;;
81508;SDS011;70930;52.412;13.554;2023-10-09T05:48:03;8.55;;;3.53;;
81508;SDS011;70930;52.412;13.554;2023-10-09T05:50:49;8.48;;;4.80;;
81508;SDS011;70930;52.412;13.554;2023-10-09T05:53:53;8.80;;;4.13;;
81508;SDS011;70930;52.412;13.554;2023-10-09T05:56:57;8.38;;;5.68;;
81508;SDS011;70930;52.412;13.554;2023-10-09T06:00:14;7.90;;;4.40;;
81508;SDS011;70930;52.412;13.554;2023-10-09T06:03:18;10.00;;;5.20;;
81508;SDS011;70930;52.412;13.554;2023-10-09T06:06:04;6.82;;;4.50;;
81508;SDS011;70930;52.412;13.554;2023-10-09T06:08:50;7.97;;;3.92;;
81508;SDS011;70930;52.412;13.554;2023-10-09T06:11:55;5.25;;;3.72;;
81508;SDS011;70930;52.412;13.554;2023-10-09T06:15:01;9.10;;;5.25;;
81508;SDS011;70930;52.412;13.554;2023-10-09T06:18:03;12.88;;;5.05;;
81508;SDS011;70930;52.412;13.554;2023-10-09T06:21:10;9.88;;;5.35;;
81508;SDS011;70930;52.412;13.554;2023-10-09T06:24:15;7.13;;;4.88;;
81508;SDS011;70930;52.412;13.554;2023-10-09T06:27:00;8.05;;;4.82;;
81508;SDS011;70930;52.412;13.554;2023-10-09T06:29:45;13.32;;;7.32;;
81508;SDS011;70930;52.412;13.554;2023-10-09T06:32:33;10.95;;;5.88;;
81508;SDS011;70930;52.412;13.554;2023-10-09T06:35:19;7.72;;;4.65;;
81508;SDS011;70930;52.412;13.554;2023-10-09T06:38:07;7.70;;;4.95;;
81508;SDS011;70930;52.412;13.554;2023-10-09T06:41:06;7.03;;;4.40;;
81508;SDS011;70930;52.412;13.554;2023-10-09T06:43:52;8.68;;;4.95;;
81508;SDS011;70930;52.412;13.554;2023-10-09T06:46:38;7.85;;;4.78;;
81508;SDS011;70930;52.412;13.554;2023-10-09T06:49:29;7.88;;;4.72;;
81508;SDS011;70930;52.412;13.554;2023-10-09T06:52:18;6.50;;;3.78;;
81508;SDS011;70930;52.412;13.554;2023-10-09T06:55:24;4.95;;;3.40;;
81508;SDS011;70930;52.412;13.554;2023-10-09T06:58:22;11.00;;;5.75;;
81508;SDS011;70930;52.412;13.554;2023-10-09T07:01:13;11.60;;;5.43;;
81508;SDS011;70930;52.412;13.554;2023-10-09T07:04:05;6.20;;;3.75;;
81508;SDS011;70930;52.412;13.554;2023-10-09T07:07:06;7.95;;;5.63;;
81508;SDS011;70930;52.412;13.554;2023-10-09T07:09:58;8.20;;;5.28;;
81508;SDS011;70930;52.412;13.554;2023-10-09T07:13:02;12.25;;;8.13;;
81508;SDS011;70930;52.412;13.554;2023-10-09T07:15:49;18.40;;;10.15;;
81508;SDS011;70930;52.412;13.554;2023-10-09T07:18:53;12.82;;;8.95;;
81508;SDS011;70930;52.412;13.554;2023-10-09T07:21:39;12.15;;;7.78;;
81508;SDS011;70930;52.412;13.554;2023-10-09T07:24:36;8.50;;;5.38;;
81508;SDS011;70930;52.412;13.554;2023-10-09T07:27:29;8.18;;;4.93;;
81508;SDS011;70930;52.412;13.554;2023-10-09T07:30:29;5.95;;;2.80;;
81508;SDS011;70930;52.412;13.554;2023-10-09T07:33:14;7.38;;;3.67;;
81508;SDS011;70930;52.412;13.554;2023-10-09T07:36:01;7.95;;;5.03;;
81508;SDS011;70930;52.412;13.554;2023-10-09T07:38:53;8.82;;;4.60;;
81508;SDS011;70930;52.412;13.554;2023-10-09T07:41:43;8.18;;;3.95;;
81508;SDS011;70930;52.412;13.554;2023-10-09T07:44:41;5.32;;;3.08;;
81508;SDS011;70930;52.412;13.554;2023-10-09T07:47:31;4.70;;;2.78;;
81508;SDS011;70930;52.412;13.554;2023-10-09T07:50:38;7.05;;;3.83;;
81508;SDS011;70930;52.412;13.554;2023-10-09T07:53:33;6.43;;;3.78;;
81508;SDS011;70930;52.412;13.554;2023-10-09T07:56:28;4.90;;;2.80;;
81508;SDS011;70930;52.412;13.554;2023-10-09T07:59:23;7.90;;;3.97;;
81508;SDS011;70930;52.412;13.554;2023-10-09T08:02:09;7.30;;;4.55;;
81508;SDS011;70930;52.412;13.554;2023-10-09T08:04:59;7.03;;;4.85;;
81508;SDS011;70930;52.412;13.554;2023-10-09T08:07:50;4.90;;;3.78;;
81508;SDS011;70930;52.412;13.554;2023-10-09T08:11:07;6.68;;;4.10;;
81508;SDS011;70930;52.412;13.554;2023-10-09T08:14:12;6.53;;;3.50;;
81508;SDS011;70930;52.412;13.554;2023-10-09T08:17:17;5.88;;;3.80;;
81508;SDS011;70930;52.412;13.554;2023-10-09T08:20:12;6.28;;;3.95;;
81508;SDS011;70930;52.412;13.554;2023-10-09T08:22:58;4.93;;;3.15;;
81508;SDS011;70930;52.412;13.554;2023-10-09T08:25:43;8.00;;;3.90;;
81508;SDS011;70930;52.412;13.554;2023-10-09T08:28:43;4.18;;;2.88;;
81508;SDS011;70930;52.412;13.554;2023-10-09T08:31:30;3.47;;;2.70;;
81508;SDS011;70930;52.412;13.554;2023-10-09T08:34:30;6.00;;;4.55;;
81508;SDS011;70930;52.412;13.554;2023-10-09T08:37:33;5.18;;;3.42;;
81508;SDS011;70930;52.412;13.554;2023-10-09T08:40:21;6.40;;;4.70;;
81508;SDS011;70930;52.412;13.554;2023-10-09T08:46:02;5.13;;;3.40;;
81508;SDS011;70930;52.412;13.554;2023-10-09T08:48:49;6.57;;;3.78;;
81508;SDS011;70930;52.412;13.554;2023-10-09T08:51:35;5.15;;;3.60;;
81508;SDS011;70930;52.412;13.554;2023-10-09T08:54:22;7.05;;;4.60;;
81508;SDS011;70930;52.412;13.554;2023-10-09T08:57:08;8.43;;;5.35;;
81508;SDS011;70930;52.412;13.554;2023-10-09T08:59:55;7.45;;;4.57;;
81508;SDS011;70930;52.412;13.554;2023-10-09T09:02:41;6.55;;;4.25;;
81508;SDS011;70930;52.412;13.554;2023-10-09T09:05:28;6.50;;;4.30;;
81508;SDS011;70930;52.412;13.554;2023-10-09T09:08:20;7.15;;;4.28;;
81508;SDS011;70930;52.412;13.554;2023-10-09T09:11:09;7.88;;;3.80;;
81508;SDS011;70930;52.412;13.554;2023-10-09T09:14:03;6.45;;;4.10;;
81508;SDS011;70930;52.412;13.554;2023-10-09T09:16:57;8.18;;;5.60;;
81508;SDS011;70930;52.412;13.554;2023-10-09T09:19:43;10.55;;;6.97;;
81508;SDS011;70930;52.412;13.554;2023-10-09T09:22:28;10.05;;;7.07;;
81508;SDS011;70930;52.412;13.554;2023-10-09T09:25:45;12.27;;;6.93;;
81508;SDS011;70930;52.412;13.554;2023-10-09T09:28:33;11.40;;;7.22;;
81508;SDS011;70930;52.412;13.554;2023-10-09T09:31:25;8.82;;;7.38;;
81508;SDS011;70930;52.412;13.554;2023-10-09T09:34:10;7.50;;;6.03;;
81508;SDS011;70930;52.412;13.554;2023-10-09T09:37:10;9.85;;;6.45;;
81508;SDS011;70930;52.412;13.554;2023-10-09T09:39:59;7.70;;;6.38;;
81508;SDS011;70930;52.412;13.554;2023-10-09T09:43:00;8.70;;;4.93;;
81508;SDS011;70930;52.412;13.554;2023-10-09T09:45:55;5.97;;;4.50;;
81508;SDS011;70930;52.412;13.554;2023-10-09T09:48:41;5.68;;;4.40;;
81508;SDS011;70930;52.412;13.554;2023-10-09T09:51:32;6.97;;;4.65;;
81508;SDS011;70930;52.412;13.554;2023-10-09T09:54:18;10.18;;;6.10;;
81508;SDS011;70930;52.412;13.554;2023-10-09T09:57:07;7.60;;;5.13;;
81508;SDS011;70930;52.412;13.554;2023-10-09T09:59:55;7.15;;;5.20;;
81508;SDS011;70930;52.412;13.554;2023-10-09T10:02:42;9.43;;;6.20;;
81508;SDS011;70930;52.412;13.554;2023-10-09T10:05:30;8.35;;;6.00;;
81508;SDS011;70930;52.412;13.554;2023-10-09T10:08:17;9.05;;;5.70;;
81508;SDS011;70930;52.412;13.554;2023-10-09T10:11:05;9.38;;;6.82;;
81508;SDS011;70930;52.412;13.554;2023-10-09T10:16:59;6.55;;;4.57;;
81508;SDS011;70930;52.412;13.554;2023-10-09T10:20:06;9.63;;;5.70;;
81508;SDS011;70930;52.412;13.554;2023-10-09T10:23:19;8.32;;;4.88;;
81508;SDS011;70930;52.412;13.554;2023-10-09T10:26:17;8.15;;;5.90;;
81508;SDS011;70930;52.412;13.554;2023-10-09T10:29:16;7.70;;;5.07;;
81508;SDS011;70930;52.412;13.554;2023-10-09T10:32:09;9.32;;;5.70;;
81508;SDS011;70930;52.412;13.554;2023-10-09T10:34:56;8.00;;;5.13;;
81508;SDS011;70930;52.412;13.554;2023-10-09T10:37:41;8.32;;;5.35;;
81508;SDS011;70930;52.412;13.554;2023-10-09T10:40:35;7.00;;;4.75;;
81508;SDS011;70930;52.412;13.554;2023-10-09T10:43:24;8.77;;;5.75;;
81508;SDS011;70930;52.412;13.554;2023-10-09T10:46:27;12.00;;;5.78;;
81508;SDS011;70930;52.412;13.554;2023-10-09T10:49:19;11.98;;;7.07;;
81508;SDS011;70930;52.412;13.554;2023-10-09T10:52:19;9.00;;;6.50;;
81508;SDS011;70930;52.412;13.554;2023-10-09T10:55:09;8.93;;;6.15;;
81508;SDS011;70930;52.412;13.554;2023-10-09T10:58:33;7.35;;;4.32;;
81508;SDS011;70930;52.412;13.554;2023-10-09T11:01:35;11.50;;;6.60;;
81508;SDS011;70930;52.412;13.554;2023-10-09T11:04:45;9.63;;;5.68;;
81508;SDS011;70930;52.412;13.554;2023-10-09T11:07:38;13.18;;;8.30;;
81508;SDS011;70930;52.412;13.554;2023-10-09T11:10:23;9.10;;;5.45;;
81508;SDS011;70930;52.412;13.554;2023-10-09T11:13:20;7.03;;;5.32;;
81508;SDS011;70930;52.412;13.554;2023-10-09T11:16:16;9.43;;;6.72;;
81508;SDS011;70930;52.412;13.554;2023-10-09T11:19:14;10.07;;;7.35;;
81508;SDS011;70930;52.412;13.554;2023-10-09T11:22:16;8.45;;;5.80;;
81508;SDS011;70930;52.412;13.554;2023-10-09T11:25:13;10.48;;;7.50;;
81508;SDS011;70930;52.412;13.554;2023-10-09T11:28:03;9.52;;;6.32;;
81508;SDS011;70930;52.412;13.554;2023-10-09T11:31:09;8.20;;;6.22;;
81508;SDS011;70930;52.412;13.554;2023-10-09T11:34:01;10.68;;;7.18;;
81508;SDS011;70930;52.412;13.554;2023-10-09T11:36:47;10.05;;;7.07;;
81508;SDS011;70930;52.412;13.554;2023-10-09T11:39:40;10.75;;;6.13;;
81508;SDS011;70930;52.412;13.554;2023-10-09T11:42:38;9.77;;;6.82;;
81508;SDS011;70930;52.412;13.554;2023-10-09T11:45:33;10.85;;;6.55;;
81508;SDS011;70930;52.412;13.554;2023-10-09T11:48:23;9.55;;;6.68;;
81508;SDS011;70930;52.412;13.554;2023-10-09T11:51:31;12.25;;;6.32;;
81508;SDS011;70930;52.412;13.554;2023-10-09T11:54:32;8.35;;;6.43;;
81508;SDS011;70930;52.412;13.554;2023-10-09T11:57:18;9.90;;;7.35;;
81508;SDS011;70930;52.412;13.554;2023-10-09T12:00:04;11.85;;;8.80;;
81508;SDS011;70930;52.412;13.554;2023-10-09T12:03:08;13.45;;;7.93;;
81508;SDS011;70930;52.412;13.554;2023-10-09T12:05:55;14.77;;;9.45;;
81508;SDS011;70930;52.412;13.554;2023-10-09T12:08:49;14.38;;;8.73;;
81508;SDS011;70930;52.412;13.554;2023-10-09T12:11:35;13.30;;;9.45;;
81508;SDS011;70930;52.412;13.554;2023-10-09T12:14:20;12.27;;;9.38;;
81508;SDS011;70930;52.412;13.554;2023-10-09T12:17:08;13.32;;;8.50;;
81508;SDS011;70930;52.412;13.554;2023-10-09T12:19:54;9.10;;;6.85;;
81508;SDS011;70930;52.412;13.554;2023-10-09T12:22:41;11.85;;;9.13;;
81508;SDS011;70930;52.412;13.554;2023-10-09T12:25:26;10.38;;;6.85;;
81508;SDS011;70930;52.412;13.554;2023-10-09T12:28:16;10.75;;;7.85;;
81508;SDS011;70930;52.412;13.554;2023-10-09T12:31:05;10.38;;;7.53;;
81508;SDS011;70930;52.412;13.554;2023-10-09T12:33:50;9.15;;;7.05;;
81508;SDS011;70930;52.412;13.554;2023-10-09T12:36:36;10.30;;;6.43;;
81508;SDS011;70930;52.412;13.554;2023-10-09T12:39:22;11.15;;;6.10;;
81508;SDS011;70930;52.412;13.554;2023-10-09T12:42:07;10.52;;;6.35;;
81508;SDS011;70930;52.412;13.554;2023-10-09T12:44:53;9.90;;;6.50;;
81508;SDS011;70930;52.412;13.554;2023-10-09T12:47:42;9.32;;;7.53;;
81508;SDS011;70930;52.412;13.554;2023-10-09T12:50:33;10.38;;;8.07;;
81508;SDS011;70930;52.412;13.554;2023-10-09T12:53:18;9.40;;;5.88;;
81508;SDS011;70930;52.412;13.554;2023-10-09T12:56:04;9.38;;;6.22;;
81508;SDS011;70930;52.412;13.554;2023-10-09T12:58:49;11.50;;;7.47;;
81508;SDS011;70930;52.412;13.554;2023-10-09T13:01:37;11.98;;;7.78;;
81508;SDS011;70930;52.412;13.554;2023-10-09T13:04:29;8.57;;;5.55;;
81508;SDS011;70930;52.412;13.554;2023-10-09T13:07:16;8.15;;;5.68;;
81508;SDS011;70930;52.412;13.554;2023-10-09T13:10:07;7.88;;;5.43;;
81508;SDS011;70930;52.412;13.554;2023-10-09T13:12:58;8.63;;;6.03;;
81508;SDS011;70930;52.412;13.554;2023-10-09T13:15:44;8.27;;;6.13;;
81508;SDS011;70930;52.412;13.554;2023-10-09T13:18:29;8.52;;;5.95;;
81508;SDS011;70930;52.412;13.554;2023-10-09T13:21:36;10.57;;;7.05;;
81508;SDS011;70930;52.412;13.554;2023-10-09T13:24:22;8.43;;;5.70;;
81508;SDS011;70930;52.412;13.554;2023-10-09T13:27:14;9.57;;;6.70;;
81508;SDS011;70930;52.412;13.554;2023-10-09T13:30:06;6.80;;;5.30;;
81508;SDS011;70930;52.412;13.554;2023-10-09T13:32:54;10.68;;;5.80;;
81508;SDS011;70930;52.412;13.554;2023-10-09T13:35:40;8.10;;;6.03;;
81508;SDS011;70930;52.412;13.554;2023-10-09T13:38:33;6.85;;;4.90;;
81508;SDS011;70930;52.412;13.554;2023-10-09T13:41:18;7.70;;;5.82;;
81508;SDS011;70930;52.412;13.554;2023-10-09T13:44:04;7.47;;;5.03;;
81508;SDS011;70930;52.412;13.554;2023-10-09T13:46:49;7.35;;;4.60;;
81508;SDS011;70930;52.412;13.554;2023-10-09T13:49:35;10.15;;;5.95;;
81508;SDS011;70930;52.412;13.554;2023-10-09T13:52:25;8.25;;;5.35;;
81508;SDS011;70930;52.412;13.554;2023-10-09T13:55:12;7.50;;;5.00;;
81508;SDS011;70930;52.412;13.554;2023-10-09T13:58:00;8.18;;;5.68;;
81508;SDS011;70930;52.412;13.554;2023-10-09T14:00:45;10.65;;;6.15;;
81508;SDS011;70930;52.412;13.554;2023-10-09T14:03:35;9.75;;;6.22;;
81508;SDS011;70930;52.412;13.554;2023-10-09T14:06:23;8.52;;;5.97;;
81508;SDS011;70930;52.412;13.554;2023-10-09T14:09:18;9.15;;;6.93;;
81508;SDS011;70930;52.412;13.554;2023-10-09T14:12:13;8.13;;;5.78;;
81508;SDS011;70930;52.412;13.554;2023-10-09T14:15:00;6.97;;;5.50;;
81508;SDS011;70930;52.412;13.554;2023-10-09T14:17:48;8.00;;;5.85;;
81508;SDS011;70930;52.412;13.554;2023-10-09T14:20:40;10.13;;;5.13;;
81508;SDS011;70930;52.412;13.554;2023-10-09T14:23:26;9.88;;;5.82;;
81508;SDS011;70930;52.412;13.554;2023-10-09T14:26:17;8.38;;;5.60;;
81508;SDS011;70930;52.412;13.554;2023-10-09T14:29:03;6.22;;;4.93;;
81508;SDS011;70930;52.412;13.554;2023-10-09T14:31:52;8.75;;;6.20;;
81508;SDS011;70930;52.412;13.554;2023-10-09T14:37:38;8.00;;;5.20;;
81508;SDS011;70930;52.412;13.554;2023-10-09T14:40:24;9.43;;;5.55;;
81508;SDS011;70930;52.412;13.554;2023-10-09T14:43:16;7.95;;;5.70;;
81508;SDS011;70930;52.412;13.554;2023-10-09T14:46:05;8.45;;;4.93;;
81508;SDS011;70930;52.412;13.554;2023-10-09T14:48:55;6.60;;;5.22;;
81508;SDS011;70930;52.412;13.554;2023-10-09T14:51:43;8.00;;;6.10;;
81508;SDS011;70930;52.412;13.554;2023-10-09T14:54:29;6.43;;;5.15;;
81508;SDS011;70930;52.412;13.554;2023-10-09T14:57:15;5.85;;;4.88;;
81508;SDS011;70930;52.412;13.554;2023-10-09T15:00:01;5.85;;;4.70;;
81508;SDS011;70930;52.412;13.554;2023-10-09T15:02:52;6.40;;;4.15;;
81508;SDS011;70930;52.412;13.554;2023-10-09T15:05:38;6.03;;;4.57;;
81508;SDS011;70930;52.412;13.554;2023-10-09T15:08:23;7.20;;;5.15;;
81508;SDS011;70930;52.412;13.554;2023-10-09T15:11:09;6.22;;;4.65;;
81508;SDS011;70930;52.412;13.554;2023-10-09T15:13:55;5.53;;;4.57;;
81508;SDS011;70930;52.412;13.554;2023-10-09T15:16:43;7.75;;;5.43;;
81508;SDS011;70930;52.412;13.554;2023-10-09T15:19:28;7.70;;;5.32;;
81508;SDS011;70930;52.412;13.554;2023-10-09T15:22:14;7.70;;;5.60;;
81508;SDS011;70930;52.412;13.554;2023-10-09T15:24:59;8.70;;;5.47;;
81508;SDS011;70930;52.412;13.554;2023-10-09T15:27:45;10.23;;;6.85;;
81508;SDS011;70930;52.412;13.554;2023-10-09T15:30:30;10.35;;;6.85;;
81508;SDS011;70930;52.412;13.554;2023-10-09T15:33:16;8.18;;;6.40;;
81508;SDS011;70930;52.412;13.554;2023-10-09T15:36:13;11.40;;;7.00;;
81508;SDS011;70930;52.412;13.554;2023-10-09T15:38:59;9.43;;;6.72;;
81508;SDS011;70930;52.412;13.554;2023-10-09T15:41:45;7.18;;;4.82;;
81508;SDS011;70930;52.412;13.554;2023-10-09T15:44:31;8.02;;;5.97;;
81508;SDS011;70930;52.412;13.554;2023-10-09T15:47:21;11.65;;;7.05;;
81508;SDS011;70930;52.412;13.554;2023-10-09T15:50:07;8.27;;;5.63;;
81508;SDS011;70930;52.412;13.554;2023-10-09T15:55:39;11.23;;;6.93;;
81508;SDS011;70930;52.412;13.554;2023-10-09T15:58:25;7.82;;;5.40;;
81508;SDS011;70930;52.412;13.554;2023-10-09T16:01:11;6.72;;;5.00;;
81508;SDS011;70930;52.412;13.554;2023-10-09T16:04:00;6.35;;;5.10;;
81508;SDS011;70930;52.412;13.554;2023-10-09T16:06:46;8.00;;;5.07;;
81508;SDS011;70930;52.412;13.554;2023-10-09T16:09:31;8.27;;;6.05;;
81508;SDS011;70930;52.412;13.554;2023-10-09T16:12:22;7.88;;;6.30;;
81508;SDS011;70930;52.412;13.554;2023-10-09T16:15:08;9.20;;;5.78;;
81508;SDS011;70930;52.412;13.554;2023-10-09T16:17:54;8.15;;;5.72;;
81508;SDS011;70930;52.412;13.554;2023-10-09T16:20:51;8.32;;;6.45;;
81508;SDS011;70930;52.412;13.554;2023-10-09T16:23:37;8.70;;;6.18;;
81508;SDS011;70930;52.412;13.554;2023-10-09T16:26:22;7.25;;;5.10;;
81508;SDS011;70930;52.412;13.554;2023-10-09T16:29:09;10.00;;;6.72;;
81508;SDS011;70930;52.412;13.554;2023-10-09T16:31:55;9.38;;;6.40;;
81508;SDS011;70930;52.412;13.554;2023-10-09T16:34:40;8.55;;;5.35;;
81508;SDS011;70930;52.412;13.554;2023-10-09T16:37:25;10.80;;;6.00;;
81508;SDS011;70930;52.412;13.554;2023-10-09T16:40:11;8.63;;;6.15;;
81508;SDS011;70930;52.412;13.554;2023-10-09T16:42:58;8.40;;;6.10;;
81508;SDS011;70930;52.412;13.554;2023-10-09T16:45:46;9.70;;;6.43;;
81508;SDS011;70930;52.412;13.554;2023-10-09T16:48:31;10.68;;;6.72;;
81508;SDS011;70930;52.412;13.554;2023-10-09T16:51:17;11.07;;;6.78;;
81508;SDS011;70930;52.412;13.554;2023-10-09T16:54:06;6.88;;;5.65;;
81508;SDS011;70930;52.412;13.554;2023-10-09T16:56:52;8.70;;;5.53;;
81508;SDS011;70930;52.412;13.554;2023-10-09T16:59:40;7.97;;;5.18;;
81508;SDS011;70930;52.412;13.554;2023-10-09T17:02:27;6.18;;;4.90;;
81508;SDS011;70930;52.412;13.554;2023-10-09T17:05:12;8.88;;;7.18;;
81508;SDS011;70930;52.412;13.554;2023-10-09T17:08:01;15.93;;;13.43;;
81508;SDS011;70930;52.412;13.554;2023-10-09T17:10:48;13.07;;;8.93;;